Time;durP1;ratioP1;P1;durP2;ratioP2;P2;SDS_P1;SDS_P2;PMS_P1;PMS_P2;Temp;Humidity;BMP_temperature;BMP_pressure;BME280_temperature;BME280_humidity;BME280_pressure;Samples;Min_cycle;Max_cycle;Signal;HPM_P1;HPM_P2
2022/03/11 00:02:07;;;;;;;4.22;3.15;;;;;;;19.16;38.82;101729.31;4983118;28;20042;-47
2022/03/11 00:04:33;;;;;;;5.22;3.67;;;;;;;19.16;38.84;101729.31;4974677;28;20061;-44
2022/03/11 00:06:58;;;;;;;3.85;3.10;;;;;;;19.16;38.76;101734.59;4972470;28;20669;-44
2022/03/11 00:09:24;;;;;;;4.53;3.60;;;;;;;19.16;38.93;101729.31;4982149;28;20026;-46
2022/03/11 00:11:49;;;;;;;3.95;3.05;;;;;;;19.16;38.71;101732.78;4973321;28;20048;-46
2022/03/11 00:14:15;;;;;;;6.13;3.28;;;;;;;19.15;38.71;101731.13;4987402;28;20031;-43
2022/03/11 00:16:41;;;;;;;5.25;2.85;;;;;;;19.15;38.77;101736.41;4975955;28;20044;-43
2022/03/11 00:19:06;;;;;;;5.47;3.25;;;;;;;19.15;38.81;101740.88;4971807;28;20098;-47
2022/03/11 00:21:32;;;;;;;3.42;3.08;;;;;;;19.15;38.79;101736.41;4973913;28;20088;-45
2022/03/11 00:23:58;;;;;;;5.75;2.90;;;;;;;19.14;38.78;101742.69;4974038;28;20070;-46
2022/03/11 00:26:24;;;;;;;4.35;3.38;;;;;;;19.14;38.82;101736.59;4976947;28;20029;-44
2022/03/11 00:28:50;;;;;;;5.68;3.85;;;;;;;19.14;38.67;101742.69;4984511;28;20030;-47
2022/03/11 00:31:16;;;;;;;3.65;2.95;;;;;;;19.13;38.69;101743.69;4979277;28;20372;-48
2022/03/11 00:33:41;;;;;;;4.47;2.97;;;;;;;19.14;38.67;101739.22;4982995;28;20034;-44
2022/03/11 00:36:07;;;;;;;3.15;2.67;;;;;;;19.13;38.66;101740.22;4978513;28;20768;-44
2022/03/11 00:38:33;;;;;;;4.28;3.30;;;;;;;19.11;38.72;101740.38;4989848;28;20470;-48
2022/03/11 00:40:58;;;;;;;4.13;2.53;;;;;;;19.13;38.61;101740.22;4971562;28;20035;-48
2022/03/11 00:43:24;;;;;;;7.63;3.08;;;;;;;19.11;38.69;101742.19;4983693;28;20035;-47
2022/03/11 00:45:50;;;;;;;4.80;3.25;;;;;;;19.11;38.63;101742.19;4983378;28;20065;-45
2022/03/11 00:48:16;;;;;;;6.78;3.70;;;;;;;19.11;38.72;101742.19;4983782;28;20077;-45
2022/03/11 00:50:42;;;;;;;4.25;3.60;;;;;;;19.10;38.61;101732.63;4985854;28;20030;-45
2022/03/11 00:53:07;;;;;;;4.78;3.10;;;;;;;19.11;38.65;101726.34;4974708;28;20129;-45
2022/03/11 00:55:33;;;;;;;5.40;2.72;;;;;;;19.09;38.50;101730.97;4984095;28;20062;-43
2022/03/11 00:57:58;;;;;;;5.22;3.42;;;;;;;19.08;38.55;101729.34;4974073;28;20038;-47
2022/03/11 01:00:24;;;;;;;4.55;3.28;;;;;;;19.08;38.64;101729.34;4974754;28;20130;-43
2022/03/11 01:02:50;;;;;;;4.53;3.33;;;;;;;19.07;38.63;101727.69;4983234;28;20065;-44
2022/03/11 01:05:15;;;;;;;3.90;2.78;;;;;;;19.06;38.59;101724.22;4982100;28;20034;-48
2022/03/11 01:07:41;;;;;;;4.05;3.00;;;;;;;19.06;38.58;101726.03;4982152;28;20026;-47
2022/03/11 01:10:08;;;;;;;4.45;3.10;;;;;;;19.06;38.58;101726.84;4977982;28;20026;-46
2022/03/11 01:12:34;;;;;;;4.15;3.13;;;;;;;19.04;38.61;101717.47;4977413;28;20062;-44
2022/03/11 01:14:59;;;;;;;3.78;3.05;;;;;;;19.04;38.62;101715.63;4980300;28;20031;-45
2022/03/11 01:17:25;;;;;;;3.78;2.75;;;;;;;19.03;38.67;101719.28;4980272;28;20046;-43
2022/03/11 01:19:51;;;;;;;4.03;3.08;;;;;;;19.02;38.66;101720.25;4983496;28;20189;-44
2022/03/11 01:22:17;;;;;;;4.85;3.20;;;;;;;19.02;38.64;101716.81;4980734;28;20045;-47
2022/03/11 01:24:42;;;;;;;4.55;3.17;;;;;;;19.01;38.70;101715.16;4983455;28;20108;-45
2022/03/11 01:27:08;;;;;;;4.78;3.20;;;;;;;19.01;38.59;101715.16;4982249;28;20498;-46
2022/03/11 01:29:33;;;;;;;4.90;3.30;;;;;;;18.99;38.33;101715.31;4979000;28;20026;-44
2022/03/11 01:31:59;;;;;;;5.30;3.25;;;;;;;19.00;38.48;101721.44;4982093;28;20615;-46
2022/03/11 01:34:24;;;;;;;4.90;3.10;;;;;;;18.98;38.62;101715.50;4977570;28;20029;-45
2022/03/11 01:36:50;;;;;;;3.58;2.95;;;;;;;18.96;38.56;101707.72;4988226;28;20125;-47
2022/03/11 01:39:16;;;;;;;3.85;3.05;;;;;;;18.97;38.61;101708.56;4979205;28;20173;-46
2022/03/11 01:41:41;;;;;;;5.25;3.00;;;;;;;18.96;38.62;101713.00;4979173;28;20049;-46
2022/03/11 01:44:09;;;;;;;4.43;2.67;;;;;;;18.96;38.58;101709.56;4979124;28;20026;-46
2022/03/11 01:46:35;;;;;;;3.72;2.63;;;;;;;18.96;38.63;101704.28;4976944;28;20034;-44
2022/03/11 01:49:04;;;;;;;4.88;3.20;;;;;;;18.96;38.50;101701.63;4985746;28;20342;-48
2022/03/11 01:51:31;;;;;;;3.85;3.13;;;;;;;18.96;38.57;101701.63;4989740;28;20531;-45
2022/03/11 01:53:57;;;;;;;2.85;2.47;;;;;;;18.94;38.56;101696.50;4974899;28;20035;-45
2022/03/11 01:56:26;;;;;;;5.13;3.50;;;;;;;18.95;38.57;101689.41;4986862;28;20470;-47
2022/03/11 01:58:54;;;;;;;3.60;2.75;;;;;;;18.94;38.56;101696.50;4980784;28;20167;-45
2022/03/11 02:01:21;;;;;;;3.60;3.10;;;;;;;18.93;38.64;101696.69;4981219;28;20104;-47
2022/03/11 02:03:47;;;;;;;3.65;2.63;;;;;;;18.93;38.59;101696.69;4984457;28;20036;-48
2022/03/11 02:06:15;;;;;;;3.65;3.28;;;;;;;18.93;38.59;101694.03;4981514;28;20065;-49
2022/03/11 02:08:41;;;;;;;3.85;2.95;;;;;;;18.92;38.65;101693.22;4983626;28;20038;-47
2022/03/11 02:11:08;;;;;;;3.25;2.40;;;;;;;18.92;38.58;101681.84;5316206;23;20014;-47
2022/03/11 02:13:53;;;;;;;3.90;3.03;;;;;;;18.88;38.56;101690.13;4831177;22;20509;-46
2022/03/11 02:16:20;;;;;;;4.68;2.80;;;;;;;18.89;38.61;101686.50;4987409;28;20047;-47
2022/03/11 02:18:46;;;;;;;4.50;2.80;;;;;;;18.90;38.63;101688.09;4987720;28;20030;-45
2022/03/11 02:21:13;;;;;;;4.80;2.50;;;;;;;18.90;38.59;101682.03;4987652;28;20492;-47
2022/03/11 02:23:45;;;;;;;3.20;2.67;;;;;;;18.89;38.74;101691.78;4987389;28;20153;-49
2022/03/11 02:26:11;;;;;;;3.33;2.70;;;;;;;18.90;38.52;101688.09;4987415;28;20150;-43
2022/03/11 02:28:36;;;;;;;5.45;2.72;;;;;;;18.89;38.58;101691.78;4987687;28;20046;-46
2022/03/11 02:31:02;;;;;;;3.22;2.55;;;;;;;18.89;38.60;101686.50;4987392;28;20540;-45
2022/03/11 02:33:28;;;;;;;3.65;2.35;;;;;;;18.89;38.62;101686.50;4987313;28;20028;-47
2022/03/11 02:35:54;;;;;;;3.67;2.75;;;;;;;18.89;38.70;101691.78;4987161;28;20030;-44
2022/03/11 02:38:19;;;;;;;2.92;2.47;;;;;;;18.89;38.67;101690.94;4987444;28;20036;-45
2022/03/11 02:40:45;;;;;;;3.75;2.38;;;;;;;18.89;38.61;101688.31;4987337;28;20034;-45
2022/03/11 02:43:10;;;;;;;2.78;2.45;;;;;;;18.88;38.56;101682.19;4988018;28;20061;-43
2022/03/11 02:45:36;;;;;;;4.28;3.30;;;;;;;18.88;38.58;101686.66;4987548;28;20476;-45
2022/03/11 02:48:01;;;;;;;3.70;2.67;;;;;;;18.87;38.56;101679.72;5002431;28;20038;-45
2022/03/11 02:50:27;;;;;;;2.33;2.00;;;;;;;18.87;38.49;101685.00;4987291;28;20042;-47
2022/03/11 02:52:52;;;;;;;2.53;2.33;;;;;;;18.87;38.45;101685.84;4987502;28;20107;-46
2022/03/11 02:55:18;;;;;;;3.03;2.38;;;;;;;18.86;38.56;101681.53;4987128;28;20032;-45
2022/03/11 02:57:43;;;;;;;2.97;2.50;;;;;;;18.86;38.44;101686.00;4987078;28;20478;-45
2022/03/11 03:00:09;;;;;;;5.78;2.55;;;;;;;18.85;38.48;101679.06;4987121;28;20038;-42
2022/03/11 03:02:35;;;;;;;3.45;2.80;;;;;;;18.85;38.58;101679.06;4987083;28;20026;-45
2022/03/11 03:05:01;;;;;;;2.97;2.58;;;;;;;18.84;38.57;101688.81;4987503;28;20137;-43
2022/03/11 03:07:27;;;;;;;4.88;2.65;;;;;;;18.84;38.58;101682.72;4986947;28;20066;-45
2022/03/11 03:09:53;;;;;;;4.03;2.38;;;;;;;18.83;38.64;101684.53;4987041;28;20034;-47
2022/03/11 03:12:18;;;;;;;2.55;2.13;;;;;;;18.82;38.58;101680.22;4986789;28;20046;-45
2022/03/11 03:14:44;;;;;;;3.63;2.75;;;;;;;18.83;38.64;101686.34;4986962;28;20042;-44
2022/03/11 03:17:09;;;;;;;2.85;2.33;;;;;;;18.81;38.63;101681.22;4986930;28;20509;-44
2022/03/11 03:19:35;;;;;;;4.05;3.33;;;;;;;18.81;38.65;101686.50;4986847;28;20496;-44
2022/03/11 03:22:03;;;;;;;3.72;2.63;;;;;;;18.80;38.67;101684.84;4987062;28;20019;-45
2022/03/11 03:24:28;;;;;;;3.78;2.67;;;;;;;18.79;38.67;101685.84;4989909;28;20034;-46
2022/03/11 03:26:55;;;;;;;3.08;2.42;;;;;;;18.79;38.69;101691.13;4990613;28;20113;-44
2022/03/11 03:29:21;;;;;;;2.78;2.35;;;;;;;18.78;38.72;101680.75;4988885;28;20038;-46
2022/03/11 03:31:47;;;;;;;3.15;2.38;;;;;;;18.77;38.66;101681.72;4990532;28;20030;-42
2022/03/11 03:34:12;;;;;;;2.47;2.25;;;;;;;18.76;38.69;101680.91;4990318;28;20484;-44
2022/03/11 03:36:37;;;;;;;2.75;2.50;;;;;;;18.76;38.73;101690.63;4990282;28;20426;-45
2022/03/11 03:39:03;;;;;;;2.97;2.20;;;;;;;18.76;38.63;101690.63;4989908;28;20469;-42
2022/03/11 03:41:28;;;;;;;4.65;2.83;;;;;;;18.75;38.69;101689.81;4990180;28;20030;-45
2022/03/11 03:43:54;;;;;;;2.67;2.05;;;;;;;18.74;38.72;101684.69;4990117;28;20549;-42
2022/03/11 03:46:19;;;;;;;3.15;2.55;;;;;;;18.73;38.78;101681.25;4989728;28;20026;-46
2022/03/11 03:48:45;;;;;;;3.40;2.15;;;;;;;18.74;38.87;101674.16;4989983;28;20033;-44
2022/03/11 03:51:10;;;;;;;2.65;1.88;;;;;;;18.72;38.78;101674.31;4989973;28;20046;-42
2022/03/11 03:53:36;;;;;;;2.25;2.05;;;;;;;18.74;38.67;101671.50;4989964;28;20131;-44
2022/03/11 03:56:01;;;;;;;3.80;2.70;;;;;;;18.72;38.55;101682.22;4989768;28;20034;-44
2022/03/11 03:58:26;;;;;;;3.53;2.05;;;;;;;18.72;38.68;101674.31;4989526;28;20030;-44
2022/03/11 04:00:52;;;;;;;4.28;2.80;;;;;;;18.72;38.73;101674.31;4989849;28;20034;-44
2022/03/11 04:03:18;;;;;;;3.15;2.53;;;;;;;18.72;38.62;101678.75;4989806;28;20030;-45
2022/03/11 04:05:43;;;;;;;2.90;2.20;;;;;;;18.70;38.59;101676.28;4989501;28;20050;-45
2022/03/11 04:08:09;;;;;;;2.45;1.98;;;;;;;18.70;38.62;101676.28;4989324;28;20026;-44
2022/03/11 04:10:34;;;;;;;2.20;1.90;;;;;;;18.69;38.65;101677.28;4989486;28;20042;-43
2022/03/11 04:13:00;;;;;;;2.63;2.05;;;;;;;18.70;38.39;101678.94;4989399;28;20131;-42
2022/03/11 04:15:25;;;;;;;3.25;2.10;;;;;;;18.69;38.65;101679.09;4987807;28;20053;-45
2022/03/11 04:17:50;;;;;;;3.53;1.95;;;;;;;18.68;38.74;101670.34;4989491;28;20041;-42
2022/03/11 04:20:17;;;;;;;2.35;2.10;;;;;;;18.68;38.80;101675.63;4989769;28;20022;-41
2022/03/11 04:22:44;;;;;;;2.60;1.98;;;;;;;18.66;38.79;101680.25;4989080;28;20042;-44
2022/03/11 04:25:14;;;;;;;3.83;2.35;;;;;;;18.67;38.80;101681.09;4989004;28;20409;-41
2022/03/11 04:27:41;;;;;;;2.63;1.88;;;;;;;18.66;38.72;101680.25;4989117;28;20370;-45
2022/03/11 04:30:07;;;;;;;4.40;2.53;;;;;;;18.66;38.96;101690.81;5004129;28;20041;-42
2022/03/11 04:32:33;;;;;;;3.83;2.13;;;;;;;18.66;38.81;101690.81;4989221;28;20038;-43
2022/03/11 04:34:58;;;;;;;2.90;2.00;;;;;;;18.66;38.76;101687.34;4988427;28;20038;-44
2022/03/11 04:37:24;;;;;;;3.10;2.35;;;;;;;18.66;38.64;101692.63;4988808;28;20031;-45
2022/03/11 04:39:49;;;;;;;1.92;1.70;;;;;;;18.65;38.73;101681.25;4988977;28;20100;-47
2022/03/11 04:42:15;;;;;;;4.07;2.45;;;;;;;18.65;38.73;101689.16;4988626;28;20103;-47
2022/03/11 04:44:40;;;;;;;3.80;1.92;;;;;;;18.65;38.62;101683.06;4988711;28;20022;-46
2022/03/11 04:47:06;;;;;;;3.47;1.80;;;;;;;18.65;38.64;101689.16;4988837;28;20678;-44
2022/03/11 04:49:32;;;;;;;2.67;2.10;;;;;;;18.65;38.57;101689.16;4988539;28;20038;-44
2022/03/11 04:51:57;;;;;;;2.60;2.03;;;;;;;18.66;38.53;101690.81;4986901;28;20107;-46
2022/03/11 04:54:23;;;;;;;2.70;1.88;;;;;;;18.66;38.49;101685.53;4987077;28;20113;-44
2022/03/11 04:56:48;;;;;;;3.38;1.95;;;;;;;18.65;38.60;101673.34;4986934;28;20057;-44
2022/03/11 04:59:14;;;;;;;2.22;1.98;;;;;;;18.65;38.54;101678.59;4988341;28;20041;-44
2022/03/11 05:01:39;;;;;;;2.38;1.80;;;;;;;18.65;38.44;101673.34;4988293;28;20031;-42
2022/03/11 05:04:05;;;;;;;2.63;2.10;;;;;;;18.64;38.61;101679.59;4988387;28;20089;-44
2022/03/11 05:06:30;;;;;;;2.60;2.03;;;;;;;18.64;38.59;101681.41;4988126;28;20034;-44
2022/03/11 05:08:56;;;;;;;2.63;2.05;;;;;;;18.64;38.59;101682.25;4988334;28;20040;-45
2022/03/11 05:11:22;;;;;;;3.20;1.67;;;;;;;18.63;38.68;101691.16;4988513;28;20152;-42
2022/03/11 05:13:47;;;;;;;3.25;2.10;;;;;;;18.62;38.70;101686.88;4987925;28;20054;-43
2022/03/11 05:16:13;;;;;;;2.40;1.63;;;;;;;18.63;38.51;101691.16;4988251;28;20485;-42
2022/03/11 05:18:38;;;;;;;3.47;1.40;;;;;;;18.62;38.59;101684.22;4988122;28;20455;-43
2022/03/11 05:21:04;;;;;;;5.95;2.20;;;;;;;18.61;38.68;101682.56;4988005;28;20022;-42
2022/03/11 05:23:29;;;;;;;2.85;1.80;;;;;;;18.62;38.74;101684.22;4986651;28;20068;-43
2022/03/11 05:25:55;;;;;;;3.40;2.03;;;;;;;18.61;38.90;101682.56;4987359;28;20037;-47
2022/03/11 05:28:20;;;;;;;3.33;2.20;;;;;;;18.60;39.10;101680.94;4988016;28;20034;-42
2022/03/11 05:30:46;;;;;;;5.82;2.58;;;;;;;18.65;39.84;101677.78;4987803;28;20030;-44
2022/03/11 05:33:11;;;;;;;10.18;3.50;;;;;;;18.66;40.59;101685.53;4987006;28;20493;-44
2022/03/11 05:35:37;;;;;;;15.85;2.72;;;;;;;18.68;40.86;101686.19;4987434;28;20026;-43
2022/03/11 05:38:02;;;;;;;11.90;2.53;;;;;;;18.67;40.52;101696.91;4987558;28;20161;-43
2022/03/11 05:40:28;;;;;;;12.50;2.60;;;;;;;18.64;40.38;101692.81;4987723;28;20045;-45
2022/03/11 05:42:53;;;;;;;8.95;2.78;;;;;;;18.61;40.29;101697.59;4986935;28;20462;-46
2022/03/11 05:45:19;;;;;;;15.52;3.33;;;;;;;18.60;40.12;101695.91;4986426;28;20034;-45
2022/03/11 05:47:45;;;;;;;10.50;2.72;;;;;;;18.60;40.08;101702.03;4986825;28;20101;-48
2022/03/11 05:50:11;;;;;;;9.63;2.97;;;;;;;18.61;39.88;101710.78;4986732;28;20173;-42
2022/03/11 05:52:38;;;;;;;3.33;1.92;;;;;;;18.60;39.66;101709.97;4986991;28;20030;-42
2022/03/11 05:55:05;;;;;;;8.65;2.88;;;;;;;18.58;39.32;101712.72;4986988;28;20045;-45
2022/03/11 05:57:30;;;;;;;6.20;2.80;;;;;;;18.58;38.79;101709.28;4987324;28;20053;-45
2022/03/11 05:59:56;;;;;;;5.38;2.55;;;;;;;18.58;38.42;101712.72;4986338;28;20022;-44
2022/03/11 06:02:22;;;;;;;8.57;2.67;;;;;;;18.57;38.29;101708.44;4986763;28;20393;-47
2022/03/11 06:04:47;;;;;;;10.00;2.78;;;;;;;18.55;38.29;101710.44;4987574;28;20054;-40
2022/03/11 06:07:12;;;;;;;3.90;2.47;;;;;;;18.56;38.10;101714.72;4986919;28;20531;-45
2022/03/11 06:09:38;;;;;;;5.55;2.70;;;;;;;18.56;38.21;101716.53;4987384;28;20065;-46
2022/03/11 06:12:04;;;;;;;7.65;3.25;;;;;;;18.55;38.15;101720.16;4987604;28;20029;-45
2022/03/11 06:14:29;;;;;;;3.00;2.70;;;;;;;18.55;37.96;101714.88;4986979;28;20477;-49
2022/03/11 06:16:55;;;;;;;6.32;2.22;;;;;;;18.53;37.93;101717.69;4987310;28;20026;-47
2022/03/11 06:19:21;;;;;;;5.30;2.78;;;;;;;18.53;37.77;101722.97;4987312;28;20322;-49
2022/03/11 06:21:46;;;;;;;4.47;2.55;;;;;;;18.52;37.75;101720.50;4987037;28;20023;-44
2022/03/11 06:24:12;;;;;;;5.20;2.10;;;;;;;18.52;37.72;101734.50;4987303;28;20073;-42
2022/03/11 06:26:37;;;;;;;4.60;2.50;;;;;;;18.50;37.51;101728.56;4987107;28;20402;-45
2022/03/11 06:29:03;;;;;;;3.17;2.17;;;;;;;18.49;37.55;101734.00;4987309;28;20061;-49
2022/03/11 06:31:29;;;;;;;2.67;2.13;;;;;;;18.48;37.22;101735.00;4987360;28;20188;-42
2022/03/11 06:33:54;;;;;;;4.75;2.35;;;;;;;18.48;37.35;101737.63;4987077;28;20436;-44
2022/03/11 06:36:20;;;;;;;3.67;2.67;;;;;;;18.46;37.43;101740.44;4987317;28;20428;-45
2022/03/11 06:38:45;;;;;;;4.70;2.55;;;;;;;18.45;37.32;101733.50;4987386;28;20091;-43
2022/03/11 06:41:12;;;;;;;6.00;2.72;;;;;;;18.45;37.18;101738.78;4985727;28;20026;-44
2022/03/11 06:43:38;;;;;;;4.28;2.15;;;;;;;18.45;37.18;101740.59;4987095;28;20463;-43
2022/03/11 06:46:03;;;;;;;2.55;2.20;;;;;;;18.45;37.21;101749.34;4987340;28;20066;-46
2022/03/11 06:48:29;;;;;;;5.85;2.67;;;;;;;18.45;37.00;101754.63;4987102;28;20030;-45
2022/03/11 06:50:54;;;;;;;3.22;2.50;;;;;;;18.44;37.18;101752.16;4986996;28;20042;-46
2022/03/11 06:53:25;;;;;;;4.75;2.33;;;;;;;18.45;37.36;101757.25;4987456;28;20381;-46
2022/03/11 06:55:51;;;;;;;3.53;2.45;;;;;;;18.45;37.38;101759.06;5002028;28;20137;-42
2022/03/11 06:58:17;;;;;;;2.83;2.30;;;;;;;18.45;37.15;101762.53;4989600;28;20379;-46
2022/03/11 07:00:42;;;;;;;3.03;2.72;;;;;;;18.46;37.10;101768.66;4990957;28;20153;-42
2022/03/11 07:03:07;;;;;;;3.15;1.70;;;;;;;18.44;37.13;101765.34;4990684;28;20054;-44
2022/03/11 07:05:33;;;;;;;4.30;2.35;;;;;;;18.44;37.16;101768.81;4990527;28;20173;-45
2022/03/11 07:07:58;;;;;;;2.85;2.20;;;;;;;18.43;36.98;101771.66;4990924;28;20037;-45
2022/03/11 07:10:24;;;;;;;1.95;1.70;;;;;;;18.45;36.91;101782.81;4989235;28;20054;-48
2022/03/11 07:12:49;;;;;;;2.75;2.03;;;;;;;18.46;37.05;101781.84;4990414;28;20054;-45
2022/03/11 07:15:15;;;;;;;2.30;2.10;;;;;;;18.46;36.94;101777.38;4990473;28;20113;-45
2022/03/11 07:17:40;;;;;;;4.30;2.50;;;;;;;18.49;36.90;101782.34;4988724;28;20026;-42
2022/03/11 07:20:06;;;;;;;2.30;2.10;;;;;;;18.53;36.73;101782.84;4990171;28;20026;-48
2022/03/11 07:22:32;;;;;;;3.70;1.98;;;;;;;18.56;37.01;101790.44;4990171;28;20030;-46
2022/03/11 07:25:02;;;;;;;3.05;1.52;;;;;;;18.58;36.83;101788.44;4990143;28;20571;-44
2022/03/11 07:27:28;;;;;;;2.67;1.77;;;;;;;18.62;36.98;101797.72;4990308;28;20482;-46
2022/03/11 07:29:56;;;;;;;2.28;1.42;;;;;;;18.64;36.91;101793.09;4990167;28;20083;-45
2022/03/11 07:32:22;;;;;;;2.03;1.77;;;;;;;18.67;36.96;101800.69;5004795;28;20470;-45
2022/03/11 07:34:47;;;;;;;2.95;1.90;;;;;;;18.69;36.89;101798.72;4990248;28;20027;-48
2022/03/11 07:37:13;;;;;;;6.13;2.08;;;;;;;18.74;36.99;101799.03;4989675;28;20034;-42
2022/03/11 07:39:42;;;;;;;3.38;2.00;;;;;;;18.79;37.05;101791.47;4990525;28;20030;-43
2022/03/11 07:42:08;;;;;;;5.00;1.92;;;;;;;18.87;37.16;101802.03;4989791;28;20089;-44
2022/03/11 07:44:34;;;;;;;4.80;2.17;;;;;;;18.95;37.55;101800.34;4989590;28;20266;-43
2022/03/11 07:47:00;;;;;;;5.82;2.33;;;;;;;18.98;37.91;101800.00;4989341;28;20557;-43
2022/03/11 07:49:28;;;;;;;5.70;2.15;;;;;;;18.98;37.93;101798.19;4989613;28;20037;-42
2022/03/11 07:51:54;;;;;;;4.78;2.17;;;;;;;19.03;38.05;101810.88;4989647;28;20030;-48
2022/03/11 07:54:20;;;;;;;5.35;2.08;;;;;;;19.06;37.78;101807.91;4989775;28;20438;-45
2022/03/11 07:56:45;;;;;;;3.50;2.10;;;;;;;19.09;37.80;101803.13;4989613;28;20026;-42
2022/03/11 07:59:11;;;;;;;2.90;1.55;;;;;;;19.13;37.55;101807.09;4989863;28;20430;-47
2022/03/11 08:01:36;;;;;;;2.45;2.17;;;;;;;19.19;37.62;101803.78;4989913;28;20454;-44
2022/03/11 08:04:04;;;;;;;3.40;2.13;;;;;;;19.24;37.81;101805.91;4989756;28;20492;-42
2022/03/11 08:07:11;;;;;;;4.78;1.88;;;;;;;19.26;37.67;101803.09;4988330;28;20046;-42
2022/03/11 08:09:39;;;;;;;5.97;2.03;;;;;;;19.27;37.93;101810.03;4987329;28;20030;-48
2022/03/11 08:12:06;;;;;;;2.38;1.88;;;;;;;19.30;38.04;101818.44;4988502;28;20037;-42
2022/03/11 08:14:32;;;;;;;3.50;1.55;;;;;;;19.31;37.83;101811.34;4969400;28;20045;-46
2022/03/11 08:17:00;;;;;;;3.38;1.63;;;;;;;19.31;37.91;101809.53;4969918;28;20138;-45
2022/03/11 08:19:35;;;;;;;4.53;2.08;;;;;;;19.32;37.49;101820.94;4968590;28;20038;-42
2022/03/11 08:22:02;;;;;;;3.58;2.05;;;;;;;19.33;37.62;101823.41;4969781;28;20027;-42
2022/03/11 08:24:31;;;;;;;5.05;2.17;;;;;;;19.33;37.43;101823.41;4968229;28;20525;-42
2022/03/11 08:26:59;;;;;;;3.47;1.30;;;;;;;19.34;37.52;101832.97;4967516;28;20117;-42
2022/03/11 08:29:27;;;;;;;8.23;2.17;;;;;;;19.33;37.37;101836.63;4965624;28;20038;-43
2022/03/11 08:31:53;;;;;;;4.90;2.10;;;;;;;19.32;37.54;101831.50;4962738;28;20034;-43
2022/03/11 08:34:18;;;;;;;4.40;1.73;;;;;;;19.31;37.63;101843.88;4969372;28;20034;-41
2022/03/11 08:36:44;;;;;;;6.93;1.75;;;;;;;19.31;37.99;101840.41;4965773;28;20125;-40
2022/03/11 08:39:10;;;;;;;4.93;1.85;;;;;;;19.29;37.66;101845.88;4967349;28;20042;-45
2022/03/11 08:41:35;;;;;;;6.25;1.83;;;;;;;19.29;37.53;101842.41;4968245;28;20125;-44
2022/03/11 08:44:03;;;;;;;3.80;1.77;;;;;;;19.28;37.50;101840.75;4968809;28;20031;-47
2022/03/11 08:46:30;;;;;;;3.35;1.88;;;;;;;19.26;37.43;101840.91;4968124;28;20225;-42
2022/03/11 08:48:55;;;;;;;3.88;1.65;;;;;;;19.25;37.38;101835.81;4969106;28;20042;-43
2022/03/11 08:51:21;;;;;;;3.03;2.25;;;;;;;19.25;37.48;101843.72;4968802;28;20513;-45
2022/03/11 08:53:48;;;;;;;6.05;2.17;;;;;;;19.26;37.30;101846.19;4967910;28;20390;-46
2022/03/11 08:56:15;;;;;;;2.65;1.42;;;;;;;19.29;37.13;101845.88;4968412;28;20027;-43
2022/03/11 08:58:40;;;;;;;8.65;1.95;;;;;;;19.32;37.22;101844.72;4966929;28;20023;-41
2022/03/11 09:01:06;;;;;;;2.85;1.75;;;;;;;19.34;36.97;101843.53;4967265;28;20031;-42
2022/03/11 09:03:31;;;;;;;5.10;2.13;;;;;;;19.36;37.00;101846.84;4964254;28;20031;-44
2022/03/11 09:05:58;;;;;;;5.85;2.40;;;;;;;19.38;36.92;101850.13;4963844;28;20038;-40
2022/03/11 09:08:23;;;;;;;5.80;2.05;;;;;;;19.40;36.78;101852.59;4969011;28;20081;-42
2022/03/11 09:10:49;;;;;;;4.25;1.75;;;;;;;19.41;36.79;101851.59;4968826;28;20042;-42
2022/03/11 09:13:14;;;;;;;2.83;1.52;;;;;;;19.41;36.84;101849.78;4977499;28;20046;-44
2022/03/11 09:15:40;;;;;;;4.30;1.77;;;;;;;19.42;36.74;101853.25;4988472;28;20117;-43
2022/03/11 09:18:05;;;;;;;5.03;2.03;;;;;;;19.42;36.84;101861.19;4988306;28;20038;-42
2022/03/11 09:20:31;;;;;;;3.47;1.52;;;;;;;19.41;36.64;101854.25;4988367;28;20389;-41
2022/03/11 09:22:56;;;;;;;3.15;1.15;;;;;;;19.38;36.64;101851.94;4987621;28;20110;-41
2022/03/11 09:25:22;;;;;;;3.33;1.48;;;;;;;19.37;36.71;101856.44;5002840;28;20710;-42
2022/03/11 09:27:47;;;;;;;3.55;1.48;;;;;;;19.35;36.71;101855.78;4987692;28;20057;-41
2022/03/11 09:30:13;;;;;;;3.63;1.60;;;;;;;19.33;36.74;101856.94;4987778;28;20081;-42
2022/03/11 09:32:39;;;;;;;2.80;1.42;;;;;;;19.31;36.80;101858.91;4987530;28;20034;-41
2022/03/11 09:35:08;;;;;;;3.38;1.55;;;;;;;19.28;36.82;101856.59;4987774;28;20501;-42
2022/03/11 09:37:34;;;;;;;3.03;1.23;;;;;;;19.26;36.91;101861.22;4987543;28;20069;-43
2022/03/11 09:40:01;;;;;;;3.47;1.42;;;;;;;19.24;36.78;101864.03;4987551;28;20040;-42
2022/03/11 09:42:28;;;;;;;2.75;1.33;;;;;;;19.23;36.84;101857.09;4985280;28;20252;-44
2022/03/11 09:44:54;;;;;;;2.15;1.48;;;;;;;19.18;36.86;101860.25;4987694;28;20052;-42
2022/03/11 09:47:21;;;;;;;5.90;1.48;;;;;;;19.17;36.96;101852.47;4984120;28;20385;-41
2022/03/11 09:49:48;;;;;;;2.28;1.50;;;;;;;19.16;36.93;101856.94;4980287;28;20181;-39
2022/03/11 09:52:15;;;;;;;2.95;1.30;;;;;;;19.14;37.04;101855.47;4981967;28;20030;-42
2022/03/11 09:54:41;;;;;;;27.63;2.75;;;;;;;19.13;37.38;101853.81;4980440;28;20038;-41
2022/03/11 09:57:07;;;;;;;4.40;1.70;;;;;;;19.13;37.78;101872.31;4980272;28;20041;-41
2022/03/11 09:59:34;;;;;;;14.05;1.90;;;;;;;19.12;38.00;101866.19;4981475;28;20026;-43
2022/03/11 10:02:00;;;;;;;5.60;1.60;;;;;;;19.14;38.10;101863.38;4984031;28;20092;-42
2022/03/11 10:04:25;;;;;;;6.65;1.98;;;;;;;19.13;38.18;101867.84;4979260;28;20042;-42
2022/03/11 10:06:54;;;;;;;13.02;2.40;;;;;;;19.13;38.26;101861.72;4981499;28;20390;-44
2022/03/11 10:09:19;;;;;;;3.25;1.23;;;;;;;19.10;38.39;101865.53;4981552;28;20029;-41
2022/03/11 10:11:53;;;;;;;3.58;1.73;;;;;;;19.08;38.33;101870.16;4981366;28;20030;-41
2022/03/11 10:14:31;;;;;;;7.40;2.05;;;;;;;19.08;38.33;101871.97;4980153;28;20242;-43
2022/03/11 10:16:58;;;;;;;3.85;2.33;;;;;;;19.07;37.54;101872.97;4983718;28;20036;-43
2022/03/11 10:19:24;;;;;;;11.02;3.30;;;;;;;19.02;37.53;101876.09;4986666;28;20027;-43
2022/03/11 10:21:50;;;;;;;4.72;3.72;;;;;;;18.96;36.96;101873.28;4987372;28;20621;-43
2022/03/11 10:24:21;;;;;;;8.30;4.30;;;;;;;18.92;35.22;101869.31;4986500;28;20045;-44
2022/03/11 10:26:48;;;;;;;8.20;4.40;;;;;;;18.87;34.18;101867.22;4984545;28;20513;-46
2022/03/11 10:29:18;;;;;;;9.10;4.72;;;;;;;18.82;33.47;101870.34;4984825;28;20038;-41
2022/03/11 10:31:46;;;;;;;7.93;3.50;;;;;;;18.83;33.37;101872.00;4987817;28;20022;-41
2022/03/11 10:34:11;;;;;;;7.40;3.80;;;;;;;18.83;33.01;101874.63;4989873;28;20064;-42
2022/03/11 10:36:37;;;;;;;9.77;4.00;;;;;;;18.82;32.87;101870.34;4991218;28;20070;-43
2022/03/11 10:39:27;;;;;;;5.80;3.63;;;;;;;18.80;32.86;101868.84;4988497;28;20030;-41
2022/03/11 10:41:54;;;;;;;6.95;3.50;;;;;;;18.81;33.34;101873.97;4988311;28;20117;-42
2022/03/11 10:44:22;;;;;;;5.30;3.60;;;;;;;18.82;33.63;101872.16;4989247;28;20155;-45
2022/03/11 10:46:49;;;;;;;5.10;2.88;;;;;;;18.83;34.07;101873.81;4986990;28;20031;-41
2022/03/11 10:49:25;;;;;;;5.40;2.65;;;;;;;18.81;34.03;101873.97;4981786;28;20031;-45
2022/03/11 10:51:53;;;;;;;6.20;3.25;;;;;;;18.81;34.02;101866.03;4988524;28;20469;-42
2022/03/11 10:54:18;;;;;;;6.78;3.17;;;;;;;18.82;34.23;101867.69;4990132;28;20117;-41
2022/03/11 10:56:44;;;;;;;5.90;3.15;;;;;;;18.82;34.40;101865.06;4989225;28;20034;-47
2022/03/11 10:59:28;;;;;;;3.92;3.40;;;;;;;18.84;34.40;101867.53;4989979;28;20595;-45
2022/03/11 11:01:57;;;;;;;3.15;2.45;;;;;;;18.82;34.61;101867.69;4987438;28;20034;-42
2022/03/11 11:04:24;;;;;;;5.50;3.10;;;;;;;18.82;34.86;101870.34;4990029;28;20512;-49
2022/03/11 11:06:50;;;;;;;5.03;3.08;;;;;;;18.82;34.92;101864.22;4990431;28;20555;-41
2022/03/11 11:09:17;;;;;;;5.22;3.45;;;;;;;18.82;34.99;101870.34;4988733;28;20169;-41
2022/03/11 11:11:43;;;;;;;5.07;2.72;;;;;;;18.81;35.11;101863.41;4988980;28;20035;-46
2022/03/11 11:14:10;;;;;;;5.28;2.75;;;;;;;18.82;35.22;101867.69;4989649;28;20057;-41
2022/03/11 11:16:40;;;;;;;3.38;2.55;;;;;;;18.81;35.24;101866.03;5002962;28;20507;-42
2022/03/11 11:19:08;;;;;;;3.85;2.78;;;;;;;18.82;35.42;101867.69;4986398;28;20477;-46
2022/03/11 11:21:36;;;;;;;5.25;2.80;;;;;;;18.83;35.44;101863.25;4988397;28;20053;-43